sensor_id;sensor_type;location;lat;lon;timestamp;P1;durP1;ratioP1;P2;durP2;ratioP2
56419;SDS011;42323;52.170;7.538;2022-12-07T00:01:07;10.93;;;6.10;;
56419;SDS011;42323;52.170;7.538;2022-12-07T00:03:36;10.90;;;5.90;;
56419;SDS011;42323;52.170;7.538;2022-12-07T00:06:05;10.23;;;5.93;;
56419;SDS011;42323;52.170;7.538;2022-12-07T00:08:32;9.27;;;6.70;;
56419;SDS011;42323;52.170;7.538;2022-12-07T00:11:07;11.65;;;6.38;;
56419;SDS011;42323;52.170;7.538;2022-12-07T00:13:36;10.10;;;6.03;;
56419;SDS011;42323;52.170;7.538;2022-12-07T00:16:07;9.18;;;5.25;;
56419;SDS011;42323;52.170;7.538;2022-12-07T00:18:35;8.95;;;5.72;;
56419;SDS011;42323;52.170;7.538;2022-12-07T00:21:04;9.80;;;5.82;;
56419;SDS011;42323;52.170;7.538;2022-12-07T00:23:39;10.38;;;6.55;;
56419;SDS011;42323;52.170;7.538;2022-12-07T00:26:10;8.93;;;5.65;;
56419;SDS011;42323;52.170;7.538;2022-12-07T00:28:39;10.50;;;6.05;;
56419;SDS011;42323;52.170;7.538;2022-12-07T00:31:07;11.55;;;6.13;;
56419;SDS011;42323;52.170;7.538;2022-12-07T00:33:37;10.05;;;5.88;;
56419;SDS011;42323;52.170;7.538;2022-12-07T00:36:06;12.68;;;6.22;;
56419;SDS011;42323;52.170;7.538;2022-12-07T00:38:36;9.95;;;6.55;;
56419;SDS011;42323;52.170;7.538;2022-12-07T00:41:05;10.55;;;6.05;;
56419;SDS011;42323;52.170;7.538;2022-12-07T00:43:39;10.10;;;7.25;;
56419;SDS011;42323;52.170;7.538;2022-12-07T00:46:08;13.43;;;5.97;;
56419;SDS011;42323;52.170;7.538;2022-12-07T00:48:35;8.02;;;5.97;;
56419;SDS011;42323;52.170;7.538;2022-12-07T00:51:02;12.70;;;6.57;;
56419;SDS011;42323;52.170;7.538;2022-12-07T00:53:30;8.80;;;6.35;;
56419;SDS011;42323;52.170;7.538;2022-12-07T00:56:06;9.65;;;5.57;;
56419;SDS011;42323;52.170;7.538;2022-12-07T00:58:40;9.18;;;6.28;;
56419;SDS011;42323;52.170;7.538;2022-12-07T01:01:08;10.38;;;5.95;;
56419;SDS011;42323;52.170;7.538;2022-12-07T01:03:36;10.02;;;6.45;;
56419;SDS011;42323;52.170;7.538;2022-12-07T01:06:04;9.63;;;5.55;;
56419;SDS011;42323;52.170;7.538;2022-12-07T01:08:31;9.95;;;6.15;;
56419;SDS011;42323;52.170;7.538;2022-12-07T01:11:05;7.95;;;5.57;;
56419;SDS011;42323;52.170;7.538;2022-12-07T01:13:34;9.30;;;5.18;;
56419;SDS011;42323;52.170;7.538;2022-12-07T01:16:02;8.98;;;6.18;;
56419;SDS011;42323;52.170;7.538;2022-12-07T01:18:31;8.80;;;5.75;;
56419;SDS011;42323;52.170;7.538;2022-12-07T01:21:00;9.95;;;5.80;;
56419;SDS011;42323;52.170;7.538;2022-12-07T01:23:36;9.48;;;5.88;;
56419;SDS011;42323;52.170;7.538;2022-12-07T01:26:05;10.77;;;5.13;;
56419;SDS011;42323;52.170;7.538;2022-12-07T01:28:36;8.93;;;5.65;;
56419;SDS011;42323;52.170;7.538;2022-12-07T01:31:04;6.80;;;4.65;;
56419;SDS011;42323;52.170;7.538;2022-12-07T01:33:42;8.30;;;5.05;;
56419;SDS011;42323;52.170;7.538;2022-12-07T01:36:14;9.27;;;4.93;;
56419;SDS011;42323;52.170;7.538;2022-12-07T01:38:43;8.43;;;4.93;;
56419;SDS011;42323;52.170;7.538;2022-12-07T01:41:11;7.65;;;6.10;;
56419;SDS011;42323;52.170;7.538;2022-12-07T01:44:08;7.32;;;5.18;;
56419;SDS011;42323;52.170;7.538;2022-12-07T01:46:47;7.90;;;4.72;;
56419;SDS011;42323;52.170;7.538;2022-12-07T01:49:19;9.60;;;5.28;;
56419;SDS011;42323;52.170;7.538;2022-12-07T01:51:53;8.50;;;5.07;;
56419;SDS011;42323;52.170;7.538;2022-12-07T01:54:24;7.13;;;5.00;;
56419;SDS011;42323;52.170;7.538;2022-12-07T01:56:52;5.88;;;4.70;;
56419;SDS011;42323;52.170;7.538;2022-12-07T01:59:21;9.35;;;5.15;;
56419;SDS011;42323;52.170;7.538;2022-12-07T02:01:52;9.18;;;5.80;;
56419;SDS011;42323;52.170;7.538;2022-12-07T02:04:21;8.05;;;4.88;;
56419;SDS011;42323;52.170;7.538;2022-12-07T02:06:48;7.88;;;5.15;;
56419;SDS011;42323;52.170;7.538;2022-12-07T02:09:17;7.65;;;5.18;;
56419;SDS011;42323;52.170;7.538;2022-12-07T02:11:44;6.80;;;4.57;;
56419;SDS011;42323;52.170;7.538;2022-12-07T02:14:10;8.63;;;4.95;;
56419;SDS011;42323;52.170;7.538;2022-12-07T02:24:41;9.00;;;5.50;;
56419;SDS011;42323;52.170;7.538;2022-12-07T02:32:38;8.40;;;4.75;;
56419;SDS011;42323;52.170;7.538;2022-12-07T02:35:20;9.82;;;4.60;;
56419;SDS011;42323;52.170;7.538;2022-12-07T02:43:02;8.75;;;3.95;;
56419;SDS011;42323;52.170;7.538;2022-12-07T02:45:35;6.03;;;4.60;;
56419;SDS011;42323;52.170;7.538;2022-12-07T02:48:05;7.28;;;4.20;;
56419;SDS011;42323;52.170;7.538;2022-12-07T02:50:34;6.80;;;3.97;;
56419;SDS011;42323;52.170;7.538;2022-12-07T02:53:01;7.60;;;4.43;;
56419;SDS011;42323;52.170;7.538;2022-12-07T02:55:29;10.20;;;4.88;;
56419;SDS011;42323;52.170;7.538;2022-12-07T02:58:24;7.50;;;4.32;;
56419;SDS011;42323;52.170;7.538;2022-12-07T03:01:15;5.30;;;4.18;;
56419;SDS011;42323;52.170;7.538;2022-12-07T03:07:00;5.70;;;4.30;;
56419;SDS011;42323;52.170;7.538;2022-12-07T03:09:55;6.00;;;4.00;;
56419;SDS011;42323;52.170;7.538;2022-12-07T03:12:48;6.05;;;4.13;;
56419;SDS011;42323;52.170;7.538;2022-12-07T03:15:22;12.02;;;3.90;;
56419;SDS011;42323;52.170;7.538;2022-12-07T03:20:25;10.27;;;4.10;;
56419;SDS011;42323;52.170;7.538;2022-12-07T03:22:53;10.52;;;4.05;;
56419;SDS011;42323;52.170;7.538;2022-12-07T03:25:21;6.25;;;4.00;;
56419;SDS011;42323;52.170;7.538;2022-12-07T03:30:24;9.43;;;3.83;;
56419;SDS011;42323;52.170;7.538;2022-12-07T03:33:30;5.15;;;3.35;;
56419;SDS011;42323;52.170;7.538;2022-12-07T03:35:55;5.50;;;3.47;;
56419;SDS011;42323;52.170;7.538;2022-12-07T03:38:40;7.70;;;3.92;;
56419;SDS011;42323;52.170;7.538;2022-12-07T03:41:26;6.28;;;3.80;;
56419;SDS011;42323;52.170;7.538;2022-12-07T03:43:54;5.13;;;3.45;;
56419;SDS011;42323;52.170;7.538;2022-12-07T03:46:33;7.07;;;3.22;;
56419;SDS011;42323;52.170;7.538;2022-12-07T03:49:06;5.82;;;3.40;;
56419;SDS011;42323;52.170;7.538;2022-12-07T03:51:51;6.07;;;4.03;;
56419;SDS011;42323;52.170;7.538;2022-12-07T03:57:25;6.05;;;3.65;;
56419;SDS011;42323;52.170;7.538;2022-12-07T03:59:55;5.75;;;3.70;;
56419;SDS011;42323;52.170;7.538;2022-12-07T04:02:23;3.92;;;3.45;;
56419;SDS011;42323;52.170;7.538;2022-12-07T04:04:54;4.88;;;3.63;;
56419;SDS011;42323;52.170;7.538;2022-12-07T04:07:22;5.93;;;3.17;;
56419;SDS011;42323;52.170;7.538;2022-12-07T04:09:48;5.00;;;3.55;;
56419;SDS011;42323;52.170;7.538;2022-12-07T04:12:15;7.63;;;3.53;;
56419;SDS011;42323;52.170;7.538;2022-12-07T04:14:42;4.88;;;3.58;;
56419;SDS011;42323;52.170;7.538;2022-12-07T04:17:09;5.93;;;3.38;;
56419;SDS011;42323;52.170;7.538;2022-12-07T04:19:36;6.15;;;3.55;;
56419;SDS011;42323;52.170;7.538;2022-12-07T04:22:03;4.40;;;3.08;;
56419;SDS011;42323;52.170;7.538;2022-12-07T04:24:31;10.50;;;3.20;;
56419;SDS011;42323;52.170;7.538;2022-12-07T04:26:58;5.32;;;3.22;;
56419;SDS011;42323;52.170;7.538;2022-12-07T04:29:25;4.65;;;3.40;;
56419;SDS011;42323;52.170;7.538;2022-12-07T04:31:52;4.15;;;3.10;;
56419;SDS011;42323;52.170;7.538;2022-12-07T04:34:19;9.23;;;3.47;;
56419;SDS011;42323;52.170;7.538;2022-12-07T04:36:46;8.43;;;3.42;;
56419;SDS011;42323;52.170;7.538;2022-12-07T04:39:35;4.93;;;3.50;;
56419;SDS011;42323;52.170;7.538;2022-12-07T04:42:02;4.00;;;2.85;;
56419;SDS011;42323;52.170;7.538;2022-12-07T04:44:29;4.45;;;2.83;;
56419;SDS011;42323;52.170;7.538;2022-12-07T04:46:56;4.05;;;3.00;;
56419;SDS011;42323;52.170;7.538;2022-12-07T04:49:24;6.28;;;3.47;;
56419;SDS011;42323;52.170;7.538;2022-12-07T04:51:51;9.10;;;3.03;;
56419;SDS011;42323;52.170;7.538;2022-12-07T04:54:18;7.13;;;2.83;;
56419;SDS011;42323;52.170;7.538;2022-12-07T04:56:45;4.20;;;2.53;;
56419;SDS011;42323;52.170;7.538;2022-12-07T04:59:12;6.65;;;3.40;;
56419;SDS011;42323;52.170;7.538;2022-12-07T05:01:40;6.18;;;3.15;;
56419;SDS011;42323;52.170;7.538;2022-12-07T05:04:07;11.45;;;3.55;;
56419;SDS011;42323;52.170;7.538;2022-12-07T05:06:35;4.03;;;2.88;;
56419;SDS011;42323;52.170;7.538;2022-12-07T05:09:02;7.10;;;2.85;;
56419;SDS011;42323;52.170;7.538;2022-12-07T05:11:30;4.90;;;2.55;;
56419;SDS011;42323;52.170;7.538;2022-12-07T05:14:07;7.65;;;3.13;;
56419;SDS011;42323;52.170;7.538;2022-12-07T05:16:39;4.60;;;3.50;;
56419;SDS011;42323;52.170;7.538;2022-12-07T05:19:07;5.85;;;3.05;;
56419;SDS011;42323;52.170;7.538;2022-12-07T05:21:35;6.47;;;2.58;;
56419;SDS011;42323;52.170;7.538;2022-12-07T05:24:03;5.93;;;2.90;;
56419;SDS011;42323;52.170;7.538;2022-12-07T05:26:30;5.70;;;3.03;;
56419;SDS011;42323;52.170;7.538;2022-12-07T05:28:57;9.93;;;3.08;;
56419;SDS011;42323;52.170;7.538;2022-12-07T05:31:24;3.25;;;2.47;;
56419;SDS011;42323;52.170;7.538;2022-12-07T05:33:53;3.88;;;2.92;;
56419;SDS011;42323;52.170;7.538;2022-12-07T05:36:21;6.88;;;2.65;;
56419;SDS011;42323;52.170;7.538;2022-12-07T05:38:51;3.10;;;2.80;;
56419;SDS011;42323;52.170;7.538;2022-12-07T05:41:18;3.13;;;2.83;;
56419;SDS011;42323;52.170;7.538;2022-12-07T05:44:04;7.07;;;2.60;;
56419;SDS011;42323;52.170;7.538;2022-12-07T05:46:32;3.92;;;3.03;;
56419;SDS011;42323;52.170;7.538;2022-12-07T05:48:59;4.80;;;2.38;;
56419;SDS011;42323;52.170;7.538;2022-12-07T05:51:26;8.10;;;2.40;;
56419;SDS011;42323;52.170;7.538;2022-12-07T05:53:53;3.47;;;2.50;;
56419;SDS011;42323;52.170;7.538;2022-12-07T05:56:20;3.50;;;2.55;;
56419;SDS011;42323;52.170;7.538;2022-12-07T05:58:47;5.78;;;2.63;;
56419;SDS011;42323;52.170;7.538;2022-12-07T06:01:32;3.40;;;2.05;;
56419;SDS011;42323;52.170;7.538;2022-12-07T06:03:59;5.28;;;2.60;;
56419;SDS011;42323;52.170;7.538;2022-12-07T06:06:25;7.90;;;2.58;;
56419;SDS011;42323;52.170;7.538;2022-12-07T06:08:52;4.32;;;2.67;;
56419;SDS011;42323;52.170;7.538;2022-12-07T06:11:19;4.35;;;1.95;;
56419;SDS011;42323;52.170;7.538;2022-12-07T06:14:04;2.60;;;2.10;;
56419;SDS011;42323;52.170;7.538;2022-12-07T06:16:31;2.83;;;2.08;;
56419;SDS011;42323;52.170;7.538;2022-12-07T06:18:58;6.00;;;2.33;;
56419;SDS011;42323;52.170;7.538;2022-12-07T06:21:24;5.40;;;2.40;;
56419;SDS011;42323;52.170;7.538;2022-12-07T06:23:52;5.15;;;2.50;;
56419;SDS011;42323;52.170;7.538;2022-12-07T06:26:19;4.22;;;2.40;;
56419;SDS011;42323;52.170;7.538;2022-12-07T06:28:46;7.47;;;2.20;;
56419;SDS011;42323;52.170;7.538;2022-12-07T06:31:13;4.57;;;2.50;;
56419;SDS011;42323;52.170;7.538;2022-12-07T06:33:41;3.38;;;2.40;;
56419;SDS011;42323;52.170;7.538;2022-12-07T06:36:08;5.88;;;2.50;;
56419;SDS011;42323;52.170;7.538;2022-12-07T06:38:35;5.43;;;2.33;;
56419;SDS011;42323;52.170;7.538;2022-12-07T06:41:02;3.92;;;2.28;;
56419;SDS011;42323;52.170;7.538;2022-12-07T06:43:30;3.85;;;2.42;;
56419;SDS011;42323;52.170;7.538;2022-12-07T06:45:56;3.85;;;2.38;;
56419;SDS011;42323;52.170;7.538;2022-12-07T06:48:23;4.38;;;2.22;;
56419;SDS011;42323;52.170;7.538;2022-12-07T06:50:50;2.13;;;1.92;;
56419;SDS011;42323;52.170;7.538;2022-12-07T06:53:20;2.38;;;2.00;;
56419;SDS011;42323;52.170;7.538;2022-12-07T06:55:47;2.88;;;2.40;;
56419;SDS011;42323;52.170;7.538;2022-12-07T06:58:15;5.10;;;2.67;;
56419;SDS011;42323;52.170;7.538;2022-12-07T07:00:41;7.68;;;2.60;;
56419;SDS011;42323;52.170;7.538;2022-12-07T07:03:08;8.10;;;2.53;;
56419;SDS011;42323;52.170;7.538;2022-12-07T07:05:35;4.30;;;2.45;;
56419;SDS011;42323;52.170;7.538;2022-12-07T07:08:02;5.78;;;2.50;;
56419;SDS011;42323;52.170;7.538;2022-12-07T07:10:49;5.65;;;2.40;;
56419;SDS011;42323;52.170;7.538;2022-12-07T07:13:16;4.45;;;2.40;;
56419;SDS011;42323;52.170;7.538;2022-12-07T07:15:42;4.93;;;2.47;;
56419;SDS011;42323;52.170;7.538;2022-12-07T07:18:09;5.32;;;2.38;;
56419;SDS011;42323;52.170;7.538;2022-12-07T07:20:36;6.68;;;2.70;;
56419;SDS011;42323;52.170;7.538;2022-12-07T07:23:03;3.25;;;2.55;;
56419;SDS011;42323;52.170;7.538;2022-12-07T07:25:31;5.43;;;2.33;;
56419;SDS011;42323;52.170;7.538;2022-12-07T07:27:58;3.42;;;2.30;;
56419;SDS011;42323;52.170;7.538;2022-12-07T07:30:25;8.10;;;2.50;;
56419;SDS011;42323;52.170;7.538;2022-12-07T07:32:56;2.88;;;2.05;;
56419;SDS011;42323;52.170;7.538;2022-12-07T07:35:24;2.40;;;2.17;;
56419;SDS011;42323;52.170;7.538;2022-12-07T07:37:52;7.50;;;2.30;;
56419;SDS011;42323;52.170;7.538;2022-12-07T07:40:18;3.80;;;2.45;;
56419;SDS011;42323;52.170;7.538;2022-12-07T07:42:51;2.53;;;2.05;;
56419;SDS011;42323;52.170;7.538;2022-12-07T07:45:20;6.63;;;2.58;;
56419;SDS011;42323;52.170;7.538;2022-12-07T07:47:48;8.82;;;2.30;;
56419;SDS011;42323;52.170;7.538;2022-12-07T07:50:15;5.15;;;2.35;;
56419;SDS011;42323;52.170;7.538;2022-12-07T07:52:43;2.78;;;2.25;;
56419;SDS011;42323;52.170;7.538;2022-12-07T07:55:11;8.60;;;2.38;;
56419;SDS011;42323;52.170;7.538;2022-12-07T07:57:38;2.58;;;2.00;;
56419;SDS011;42323;52.170;7.538;2022-12-07T08:00:07;3.60;;;2.20;;
56419;SDS011;42323;52.170;7.538;2022-12-07T08:02:36;2.70;;;1.83;;
56419;SDS011;42323;52.170;7.538;2022-12-07T08:05:03;5.75;;;1.85;;
56419;SDS011;42323;52.170;7.538;2022-12-07T08:07:30;3.50;;;2.00;;
56419;SDS011;42323;52.170;7.538;2022-12-07T08:09:56;2.42;;;1.95;;
56419;SDS011;42323;52.170;7.538;2022-12-07T08:12:23;1.92;;;1.77;;
56419;SDS011;42323;52.170;7.538;2022-12-07T08:14:50;7.30;;;2.40;;
56419;SDS011;42323;52.170;7.538;2022-12-07T08:17:17;3.10;;;2.00;;
56419;SDS011;42323;52.170;7.538;2022-12-07T08:19:43;2.63;;;1.95;;
56419;SDS011;42323;52.170;7.538;2022-12-07T08:22:10;3.40;;;1.98;;
56419;SDS011;42323;52.170;7.538;2022-12-07T08:24:37;6.53;;;2.33;;
56419;SDS011;42323;52.170;7.538;2022-12-07T08:27:03;7.53;;;2.38;;
56419;SDS011;42323;52.170;7.538;2022-12-07T08:29:30;4.07;;;2.33;;
56419;SDS011;42323;52.170;7.538;2022-12-07T08:31:57;8.23;;;2.33;;
56419;SDS011;42323;52.170;7.538;2022-12-07T08:34:24;3.95;;;2.30;;
56419;SDS011;42323;52.170;7.538;2022-12-07T08:36:50;3.22;;;2.25;;
56419;SDS011;42323;52.170;7.538;2022-12-07T08:39:17;5.45;;;2.47;;
56419;SDS011;42323;52.170;7.538;2022-12-07T08:41:59;4.50;;;2.67;;
56419;SDS011;42323;52.170;7.538;2022-12-07T08:44:25;6.65;;;2.30;;
56419;SDS011;42323;52.170;7.538;2022-12-07T08:46:53;3.38;;;1.88;;
56419;SDS011;42323;52.170;7.538;2022-12-07T08:49:26;6.10;;;2.20;;
56419;SDS011;42323;52.170;7.538;2022-12-07T08:51:58;4.00;;;1.90;;
56419;SDS011;42323;52.170;7.538;2022-12-07T08:54:25;4.05;;;2.35;;
56419;SDS011;42323;52.170;7.538;2022-12-07T08:56:52;10.27;;;2.45;;
56419;SDS011;42323;52.170;7.538;2022-12-07T08:59:25;3.95;;;2.10;;
56419;SDS011;42323;52.170;7.538;2022-12-07T09:01:53;5.22;;;2.17;;
56419;SDS011;42323;52.170;7.538;2022-12-07T09:04:19;3.17;;;2.05;;
56419;SDS011;42323;52.170;7.538;2022-12-07T09:06:47;10.55;;;2.60;;
56419;SDS011;42323;52.170;7.538;2022-12-07T09:09:14;5.38;;;2.20;;
56419;SDS011;42323;52.170;7.538;2022-12-07T09:11:41;8.30;;;2.25;;
56419;SDS011;42323;52.170;7.538;2022-12-07T09:14:08;3.13;;;1.67;;
56419;SDS011;42323;52.170;7.538;2022-12-07T09:16:35;7.53;;;2.22;;
56419;SDS011;42323;52.170;7.538;2022-12-07T09:19:01;3.65;;;2.00;;
56419;SDS011;42323;52.170;7.538;2022-12-07T09:21:28;3.67;;;1.90;;
56419;SDS011;42323;52.170;7.538;2022-12-07T09:23:55;3.28;;;1.98;;
56419;SDS011;42323;52.170;7.538;2022-12-07T09:26:22;3.13;;;2.13;;
56419;SDS011;42323;52.170;7.538;2022-12-07T09:28:49;5.97;;;1.85;;
56419;SDS011;42323;52.170;7.538;2022-12-07T09:31:15;7.97;;;2.25;;
56419;SDS011;42323;52.170;7.538;2022-12-07T09:33:55;5.28;;;2.20;;
56419;SDS011;42323;52.170;7.538;2022-12-07T09:36:23;6.03;;;2.00;;
56419;SDS011;42323;52.170;7.538;2022-12-07T09:38:51;4.20;;;1.80;;
56419;SDS011;42323;52.170;7.538;2022-12-07T09:41:18;1.77;;;1.67;;
56419;SDS011;42323;52.170;7.538;2022-12-07T09:43:46;6.35;;;1.88;;
56419;SDS011;42323;52.170;7.538;2022-12-07T09:46:15;4.30;;;1.77;;
56419;SDS011;42323;52.170;7.538;2022-12-07T09:48:45;2.30;;;1.80;;
56419;SDS011;42323;52.170;7.538;2022-12-07T09:51:18;6.68;;;2.22;;
56419;SDS011;42323;52.170;7.538;2022-12-07T09:53:50;8.85;;;2.20;;
56419;SDS011;42323;52.170;7.538;2022-12-07T09:56:18;2.67;;;1.92;;
56419;SDS011;42323;52.170;7.538;2022-12-07T09:58:46;7.00;;;1.88;;
56419;SDS011;42323;52.170;7.538;2022-12-07T10:01:15;4.35;;;1.75;;
56419;SDS011;42323;52.170;7.538;2022-12-07T10:03:50;2.38;;;1.90;;
56419;SDS011;42323;52.170;7.538;2022-12-07T10:06:19;5.32;;;2.03;;
56419;SDS011;42323;52.170;7.538;2022-12-07T10:08:47;2.78;;;1.60;;
56419;SDS011;42323;52.170;7.538;2022-12-07T10:11:13;11.43;;;2.00;;
56419;SDS011;42323;52.170;7.538;2022-12-07T10:13:46;2.47;;;1.80;;
56419;SDS011;42323;52.170;7.538;2022-12-07T10:21:22;7.07;;;2.30;;
56419;SDS011;42323;52.170;7.538;2022-12-07T10:29:00;3.50;;;1.90;;
56419;SDS011;42323;52.170;7.538;2022-12-07T10:31:40;4.53;;;1.98;;
56419;SDS011;42323;52.170;7.538;2022-12-07T10:34:20;3.80;;;1.90;;
56419;SDS011;42323;52.170;7.538;2022-12-07T10:36:51;2.00;;;1.80;;
56419;SDS011;42323;52.170;7.538;2022-12-07T10:39:20;4.78;;;1.80;;
56419;SDS011;42323;52.170;7.538;2022-12-07T10:41:55;2.42;;;1.95;;
56419;SDS011;42323;52.170;7.538;2022-12-07T10:44:29;3.40;;;2.00;;
56419;SDS011;42323;52.170;7.538;2022-12-07T10:47:04;4.35;;;2.65;;
56419;SDS011;42323;52.170;7.538;2022-12-07T11:06:10;6.50;;;1.83;;
56419;SDS011;42323;52.170;7.538;2022-12-07T11:11:23;4.75;;;2.17;;
56419;SDS011;42323;52.170;7.538;2022-12-07T11:14:41;5.75;;;2.72;;
56419;SDS011;42323;52.170;7.538;2022-12-07T11:17:32;3.80;;;2.63;;
56419;SDS011;42323;52.170;7.538;2022-12-07T11:28:23;4.38;;;1.85;;
56419;SDS011;42323;52.170;7.538;2022-12-07T11:33:46;5.93;;;2.38;;
56419;SDS011;42323;52.170;7.538;2022-12-07T11:36:30;3.35;;;1.80;;
56419;SDS011;42323;52.170;7.538;2022-12-07T11:39:01;2.58;;;1.77;;
56419;SDS011;42323;52.170;7.538;2022-12-07T11:41:37;3.95;;;1.73;;
56419;SDS011;42323;52.170;7.538;2022-12-07T11:44:08;3.78;;;2.25;;
56419;SDS011;42323;52.170;7.538;2022-12-07T11:47:22;5.78;;;2.38;;
56419;SDS011;42323;52.170;7.538;2022-12-07T11:55:27;3.25;;;2.20;;
56419;SDS011;42323;52.170;7.538;2022-12-07T12:04:06;4.10;;;1.80;;
56419;SDS011;42323;52.170;7.538;2022-12-07T12:15:26;4.97;;;1.90;;
56419;SDS011;42323;52.170;7.538;2022-12-07T12:20:50;4.82;;;1.85;;
56419;SDS011;42323;52.170;7.538;2022-12-07T12:25:59;6.57;;;1.85;;
56419;SDS011;42323;52.170;7.538;2022-12-07T12:34:00;5.22;;;1.80;;
56419;SDS011;42323;52.170;7.538;2022-12-07T12:39:15;4.82;;;1.90;;
56419;SDS011;42323;52.170;7.538;2022-12-07T12:46:53;4.28;;;1.70;;
56419;SDS011;42323;52.170;7.538;2022-12-07T12:49:32;3.08;;;1.40;;
56419;SDS011;42323;52.170;7.538;2022-12-07T12:54:35;2.95;;;1.50;;
56419;SDS011;42323;52.170;7.538;2022-12-07T12:57:13;2.88;;;1.75;;
56419;SDS011;42323;52.170;7.538;2022-12-07T13:02:38;3.53;;;2.08;;
56419;SDS011;42323;52.170;7.538;2022-12-07T13:05:22;2.83;;;1.48;;
56419;SDS011;42323;52.170;7.538;2022-12-07T13:13:04;3.08;;;1.42;;
56419;SDS011;42323;52.170;7.538;2022-12-07T13:20:59;3.50;;;1.52;;
56419;SDS011;42323;52.170;7.538;2022-12-07T13:23:31;5.80;;;1.58;;
56419;SDS011;42323;52.170;7.538;2022-12-07T13:28:37;3.20;;;1.70;;
56419;SDS011;42323;52.170;7.538;2022-12-07T13:31:20;4.28;;;2.22;;
56419;SDS011;42323;52.170;7.538;2022-12-07T13:33:59;2.63;;;1.50;;
56419;SDS011;42323;52.170;7.538;2022-12-07T13:36:49;5.43;;;1.98;;
56419;SDS011;42323;52.170;7.538;2022-12-07T13:41:42;3.35;;;1.83;;
56419;SDS011;42323;52.170;7.538;2022-12-07T13:44:10;3.47;;;2.30;;
56419;SDS011;42323;52.170;7.538;2022-12-07T13:50:22;8.55;;;2.47;;
56419;SDS011;42323;52.170;7.538;2022-12-07T13:52:54;4.45;;;2.25;;
56419;SDS011;42323;52.170;7.538;2022-12-07T13:55:22;5.25;;;2.50;;
56419;SDS011;42323;52.170;7.538;2022-12-07T13:57:50;3.97;;;2.00;;
56419;SDS011;42323;52.170;7.538;2022-12-07T14:00:25;8.10;;;2.40;;
56419;SDS011;42323;52.170;7.538;2022-12-07T14:05:26;3.53;;;1.80;;
56419;SDS011;42323;52.170;7.538;2022-12-07T14:07:57;5.47;;;2.38;;
56419;SDS011;42323;52.170;7.538;2022-12-07T14:10:27;6.22;;;1.80;;
56419;SDS011;42323;52.170;7.538;2022-12-07T14:12:56;2.40;;;1.85;;
56419;SDS011;42323;52.170;7.538;2022-12-07T14:15:26;5.05;;;2.67;;
56419;SDS011;42323;52.170;7.538;2022-12-07T14:17:55;5.93;;;3.63;;
56419;SDS011;42323;52.170;7.538;2022-12-07T14:23:01;3.05;;;2.15;;
56419;SDS011;42323;52.170;7.538;2022-12-07T14:25:49;3.78;;;2.58;;
56419;SDS011;42323;52.170;7.538;2022-12-07T14:28:28;6.28;;;1.90;;
56419;SDS011;42323;52.170;7.538;2022-12-07T14:30:59;4.70;;;2.00;;
56419;SDS011;42323;52.170;7.538;2022-12-07T14:33:28;4.20;;;2.08;;
56419;SDS011;42323;52.170;7.538;2022-12-07T14:35:55;2.10;;;1.90;;
56419;SDS011;42323;52.170;7.538;2022-12-07T14:38:24;3.60;;;2.40;;
56419;SDS011;42323;52.170;7.538;2022-12-07T14:40:52;3.78;;;2.30;;
56419;SDS011;42323;52.170;7.538;2022-12-07T14:43:20;2.80;;;2.38;;
56419;SDS011;42323;52.170;7.538;2022-12-07T14:45:46;3.63;;;2.10;;
56419;SDS011;42323;52.170;7.538;2022-12-07T14:48:14;3.83;;;2.20;;
56419;SDS011;42323;52.170;7.538;2022-12-07T14:51:01;5.25;;;2.40;;
56419;SDS011;42323;52.170;7.538;2022-12-07T14:53:50;4.68;;;2.63;;
56419;SDS011;42323;52.170;7.538;2022-12-07T14:56:23;5.10;;;1.83;;
56419;SDS011;42323;52.170;7.538;2022-12-07T14:58:50;5.25;;;2.50;;
56419;SDS011;42323;52.170;7.538;2022-12-07T15:01:17;2.97;;;1.92;;
56419;SDS011;42323;52.170;7.538;2022-12-07T15:03:44;3.22;;;2.35;;
56419;SDS011;42323;52.170;7.538;2022-12-07T15:06:13;3.63;;;2.00;;
56419;SDS011;42323;52.170;7.538;2022-12-07T15:08:42;7.78;;;2.40;;
56419;SDS011;42323;52.170;7.538;2022-12-07T15:11:17;4.68;;;2.58;;
56419;SDS011;42323;52.170;7.538;2022-12-07T15:13:44;4.05;;;2.72;;
56419;SDS011;42323;52.170;7.538;2022-12-07T15:16:30;6.63;;;3.43;;
56419;SDS011;42323;52.170;7.538;2022-12-07T15:19:18;4.55;;;3.00;;
56419;SDS011;42323;52.170;7.538;2022-12-07T15:21:54;6.85;;;3.88;;
56419;SDS011;42323;52.170;7.538;2022-12-07T15:24:21;7.20;;;3.55;;
56419;SDS011;42323;52.170;7.538;2022-12-07T15:26:50;6.30;;;3.15;;
56419;SDS011;42323;52.170;7.538;2022-12-07T15:29:17;5.45;;;2.85;;
56419;SDS011;42323;52.170;7.538;2022-12-07T15:31:49;5.50;;;3.13;;
56419;SDS011;42323;52.170;7.538;2022-12-07T15:34:26;8.65;;;3.47;;
56419;SDS011;42323;52.170;7.538;2022-12-07T15:37:03;5.93;;;2.90;;
56419;SDS011;42323;52.170;7.538;2022-12-07T15:39:30;8.77;;;2.60;;
56419;SDS011;42323;52.170;7.538;2022-12-07T15:41:57;6.32;;;3.20;;
56419;SDS011;42323;52.170;7.538;2022-12-07T15:44:24;3.95;;;3.35;;
56419;SDS011;42323;52.170;7.538;2022-12-07T15:47:09;9.18;;;3.05;;
56419;SDS011;42323;52.170;7.538;2022-12-07T15:49:36;7.03;;;3.25;;
56419;SDS011;42323;52.170;7.538;2022-12-07T15:52:03;5.90;;;3.10;;
56419;SDS011;42323;52.170;7.538;2022-12-07T15:54:30;4.57;;;2.88;;
56419;SDS011;42323;52.170;7.538;2022-12-07T15:56:58;5.05;;;4.03;;
56419;SDS011;42323;52.170;7.538;2022-12-07T15:59:25;6.75;;;3.95;;
56419;SDS011;42323;52.170;7.538;2022-12-07T16:01:54;6.90;;;4.15;;
56419;SDS011;42323;52.170;7.538;2022-12-07T16:04:23;6.53;;;4.05;;
56419;SDS011;42323;52.170;7.538;2022-12-07T16:06:55;4.30;;;3.75;;
56419;SDS011;42323;52.170;7.538;2022-12-07T16:09:23;5.07;;;3.90;;
56419;SDS011;42323;52.170;7.538;2022-12-07T16:11:50;3.33;;;2.90;;
56419;SDS011;42323;52.170;7.538;2022-12-07T16:14:19;6.93;;;3.78;;
56419;SDS011;42323;52.170;7.538;2022-12-07T16:16:48;5.43;;;3.58;;
56419;SDS011;42323;52.170;7.538;2022-12-07T16:19:15;8.10;;;4.20;;
56419;SDS011;42323;52.170;7.538;2022-12-07T16:21:42;5.88;;;3.55;;
56419;SDS011;42323;52.170;7.538;2022-12-07T16:24:09;6.63;;;4.45;;
56419;SDS011;42323;52.170;7.538;2022-12-07T16:26:36;7.70;;;4.03;;
56419;SDS011;42323;52.170;7.538;2022-12-07T16:29:03;5.22;;;3.42;;
56419;SDS011;42323;52.170;7.538;2022-12-07T16:31:30;5.15;;;3.60;;
56419;SDS011;42323;52.170;7.538;2022-12-07T16:33:57;7.18;;;3.40;;
56419;SDS011;42323;52.170;7.538;2022-12-07T16:36:24;6.70;;;3.15;;
56419;SDS011;42323;52.170;7.538;2022-12-07T16:39:13;7.97;;;3.67;;
56419;SDS011;42323;52.170;7.538;2022-12-07T16:41:41;5.80;;;3.85;;
56419;SDS011;42323;52.170;7.538;2022-12-07T16:44:09;11.57;;;3.80;;
56419;SDS011;42323;52.170;7.538;2022-12-07T16:46:37;4.10;;;3.25;;
56419;SDS011;42323;52.170;7.538;2022-12-07T16:49:04;6.95;;;4.03;;
56419;SDS011;42323;52.170;7.538;2022-12-07T16:51:31;8.45;;;3.20;;
56419;SDS011;42323;52.170;7.538;2022-12-07T16:54:00;3.90;;;3.10;;
56419;SDS011;42323;52.170;7.538;2022-12-07T16:56:27;7.72;;;3.63;;
56419;SDS011;42323;52.170;7.538;2022-12-07T16:58:57;10.07;;;3.72;;
56419;SDS011;42323;52.170;7.538;2022-12-07T17:01:24;7.35;;;5.05;;
56419;SDS011;42323;52.170;7.538;2022-12-07T17:03:54;7.90;;;3.47;;
56419;SDS011;42323;52.170;7.538;2022-12-07T17:06:24;5.25;;;3.72;;
56419;SDS011;42323;52.170;7.538;2022-12-07T17:08:52;7.25;;;4.00;;
56419;SDS011;42323;52.170;7.538;2022-12-07T17:11:26;5.53;;;4.43;;
56419;SDS011;42323;52.170;7.538;2022-12-07T17:13:54;6.22;;;4.18;;
56419;SDS011;42323;52.170;7.538;2022-12-07T17:16:40;6.55;;;3.92;;
56419;SDS011;42323;52.170;7.538;2022-12-07T17:19:08;6.15;;;3.75;;
56419;SDS011;42323;52.170;7.538;2022-12-07T17:21:36;8.35;;;4.00;;
56419;SDS011;42323;52.170;7.538;2022-12-07T17:24:04;12.48;;;4.95;;
56419;SDS011;42323;52.170;7.538;2022-12-07T17:26:32;9.48;;;4.13;;